createdAt,value
2022-08-28T00:00:40.582Z,22.50
2022-08-28T00:03:09.553Z,22.50
2022-08-28T00:05:39.901Z,22.51
2022-08-28T00:08:09.757Z,22.47
2022-08-28T00:10:40.350Z,22.46
2022-08-28T00:13:14.095Z,22.49
2022-08-28T00:15:42.788Z,22.52
2022-08-28T00:18:11.004Z,22.54
2022-08-28T00:20:40.534Z,22.55
2022-08-28T00:23:08.853Z,22.53
2022-08-28T00:25:37.573Z,22.52
2022-08-28T00:28:08.563Z,22.52
2022-08-28T00:30:42.967Z,22.55
2022-08-28T00:33:12.980Z,22.55
2022-08-28T00:35:41.784Z,22.47
2022-08-28T00:38:10.340Z,22.43
2022-08-28T00:40:39.641Z,22.37
2022-08-28T00:43:09.789Z,22.32
2022-08-28T00:45:40.386Z,22.29
2022-08-28T00:48:09.082Z,22.23
2022-08-28T00:50:51.623Z,22.19
2022-08-28T00:53:20.758Z,22.16
2022-08-28T00:55:51.685Z,22.12
2022-08-28T00:58:20.207Z,22.11
2022-08-28T01:00:50.020Z,22.09
2022-08-28T01:03:18.353Z,22.05
2022-08-28T01:05:49.288Z,22.02
2022-08-28T01:08:18.644Z,21.97
2022-08-28T01:10:51.626Z,21.90
2022-08-28T01:13:19.924Z,21.88
2022-08-28T01:15:51.090Z,21.84
2022-08-28T01:18:20.785Z,21.78
2022-08-28T01:20:57.101Z,21.76
2022-08-28T01:23:34.890Z,21.80
2022-08-28T01:26:10.718Z,21.82
2022-08-28T01:28:41.202Z,21.86
2022-08-28T01:31:11.027Z,21.94
2022-08-28T01:33:40.477Z,22.01
2022-08-28T01:36:12.312Z,22.06
2022-08-28T01:38:41.869Z,22.10
2022-08-28T01:41:12.698Z,22.11
2022-08-28T01:43:41.774Z,22.11
2022-08-28T01:46:12.282Z,22.04
2022-08-28T01:48:49.398Z,21.96
2022-08-28T01:51:24.515Z,21.88
2022-08-28T01:53:58.452Z,21.89
2022-08-28T01:56:34.291Z,21.97
2022-08-28T01:59:04.934Z,21.99
2022-08-28T02:01:43.431Z,21.99
2022-08-28T02:04:15.415Z,21.98
2022-08-28T02:06:48.148Z,21.96
2022-08-28T02:09:17.720Z,22.07
2022-08-28T02:11:51.736Z,21.81
2022-08-28T02:14:26.759Z,21.70
2022-08-28T02:16:57.683Z,21.84
2022-08-28T02:19:26.655Z,21.65
2022-08-28T02:21:58.378Z,21.61
2022-08-28T02:24:29.296Z,21.62
2022-08-28T02:27:05.156Z,21.56
2022-08-28T02:29:38.381Z,21.47
2022-08-28T02:32:09.313Z,21.46
2022-08-28T02:34:40.915Z,21.46
2022-08-28T02:37:13.280Z,21.42
2022-08-28T02:39:44.725Z,21.34
2022-08-28T02:42:19.607Z,21.26
2022-08-28T02:44:49.785Z,21.22
2022-08-28T02:47:19.298Z,21.21
2022-08-28T02:49:47.575Z,21.21
2022-08-28T02:52:15.525Z,21.18
2022-08-28T02:54:44.308Z,21.16
2022-08-28T02:57:14.350Z,21.12
2022-08-28T02:59:48.081Z,21.04
2022-08-28T03:02:16.921Z,20.99
2022-08-28T03:04:55.599Z,20.91
2022-08-28T03:07:23.713Z,20.92
2022-08-28T03:09:52.911Z,20.89
2022-08-28T03:12:24.075Z,20.96
2022-08-28T03:14:54.441Z,20.97
2022-08-28T03:17:22.777Z,21.03
2022-08-28T03:19:51.077Z,21.06
2022-08-28T03:22:39.685Z,21.03
2022-08-28T03:25:07.337Z,20.99
2022-08-28T03:27:35.239Z,20.95
2022-08-28T03:30:07.142Z,20.95
2022-08-28T03:32:36.052Z,20.91
2022-08-28T03:35:05.529Z,20.92
2022-08-28T03:37:33.675Z,20.97
2022-08-28T03:40:01.796Z,20.97
2022-08-28T03:42:29.823Z,20.93
2022-08-28T03:45:00.770Z,20.94
2022-08-28T03:47:30.057Z,20.93
2022-08-28T03:52:43.241Z,21.04
2022-08-28T03:55:15.431Z,21.05
2022-08-28T03:57:45.812Z,21.11
2022-08-28T04:00:18.532Z,21.09
2022-08-28T04:02:52.474Z,21.15
2022-08-28T04:05:21.574Z,21.28
2022-08-28T04:07:59.873Z,21.05
2022-08-28T04:10:34.283Z,21.01
2022-08-28T04:13:10.980Z,20.96
2022-08-28T04:15:43.104Z,20.90
2022-08-28T04:18:15.358Z,20.83
2022-08-28T04:20:48.075Z,20.88
2022-08-28T04:23:20.123Z,20.92
2022-08-28T04:25:52.382Z,20.85
2022-08-28T04:28:23.167Z,20.86
2022-08-28T04:30:56.520Z,20.89
2022-08-28T04:33:30.591Z,20.93
2022-08-28T04:36:03.120Z,20.95
2022-08-28T04:38:34.861Z,21.01
2022-08-28T04:41:07.716Z,21.02
2022-08-28T04:43:38.430Z,20.97
2022-08-28T04:46:12.985Z,20.97
2022-08-28T04:48:46.854Z,20.97
2022-08-28T04:51:18.643Z,20.93
2022-08-28T04:53:50.346Z,20.78
2022-08-28T04:56:21.657Z,20.72
2022-08-28T04:58:53.056Z,20.63
2022-08-28T05:01:26.062Z,20.66
2022-08-28T05:04:04.985Z,20.59
2022-08-28T05:06:37.343Z,20.55
2022-08-28T05:09:08.584Z,20.56
2022-08-28T05:11:39.875Z,20.59
2022-08-28T05:14:16.124Z,20.63
2022-08-28T05:16:50.723Z,20.61
2022-08-28T05:19:23.736Z,20.57
2022-08-28T05:22:01.201Z,20.54
2022-08-28T05:24:34.720Z,20.39
2022-08-28T05:27:08.333Z,20.44
2022-08-28T05:29:37.225Z,20.50
2022-08-28T05:32:08.095Z,20.51
2022-08-28T05:34:39.786Z,20.49
2022-08-28T05:37:13.045Z,20.52
2022-08-28T05:39:45.023Z,20.61
2022-08-28T05:42:16.558Z,20.60
2022-08-28T05:44:47.521Z,20.59
2022-08-28T05:47:26.980Z,20.66
2022-08-28T05:49:59.881Z,20.71
2022-08-28T05:52:32.224Z,20.70
2022-08-28T05:55:02.907Z,20.70
2022-08-28T05:57:33.851Z,20.75
2022-08-28T06:00:07.543Z,20.79
2022-08-28T06:02:37.747Z,20.77
2022-08-28T06:05:13.166Z,20.82
2022-08-28T06:07:44.509Z,20.77
2022-08-28T06:10:16.238Z,20.72
2022-08-28T06:12:47.668Z,20.74
2022-08-28T06:15:17.519Z,20.73
2022-08-28T06:17:49.384Z,20.73
2022-08-28T06:20:21.314Z,20.70
2022-08-28T06:22:53.433Z,20.63
2022-08-28T06:25:24.478Z,20.60
2022-08-28T06:27:54.596Z,20.59
2022-08-28T06:30:24.709Z,20.58
2022-08-28T06:32:53.348Z,20.51
2022-08-28T06:35:25.733Z,20.51
2022-08-28T06:37:57.416Z,20.57
2022-08-28T06:40:28.675Z,20.60
2022-08-28T06:42:59.483Z,20.60
2022-08-28T06:45:31.092Z,20.64
2022-08-28T06:48:02.647Z,20.58
2022-08-28T06:50:42.909Z,20.66
2022-08-28T06:53:15.242Z,20.68
2022-08-28T06:55:46.749Z,20.64
2022-08-28T06:58:16.199Z,20.63
2022-08-28T07:00:44.752Z,20.65
2022-08-28T07:03:14.726Z,20.48
2022-08-28T07:05:47.741Z,20.55
2022-08-28T07:08:19.862Z,20.50
2022-08-28T07:10:52.118Z,20.58
2022-08-28T07:13:31.011Z,20.39
2022-08-28T07:16:01.591Z,20.38
2022-08-28T07:18:32.194Z,20.33
2022-08-28T07:21:02.629Z,20.33
2022-08-28T07:23:34.671Z,20.21
2022-08-28T07:26:05.002Z,20.24
2022-08-28T07:28:35.191Z,20.31
2022-08-28T07:31:05.991Z,20.35
2022-08-28T07:33:35.718Z,20.42
2022-08-28T07:36:08.162Z,20.39
2022-08-28T07:38:46.799Z,20.46
2022-08-28T07:41:19.712Z,20.45
2022-08-28T07:44:06.580Z,20.45
2022-08-28T07:46:40.995Z,20.39
2022-08-28T07:49:10.420Z,20.53
2022-08-28T07:51:39.900Z,20.62
2022-08-28T07:54:14.736Z,20.66
2022-08-28T07:56:46.161Z,20.57
2022-08-28T08:03:47.319Z,20.71
2022-08-28T08:06:17.507Z,20.77
2022-08-28T08:08:47.274Z,20.75
2022-08-28T08:11:20.825Z,20.61
2022-08-28T08:13:52.845Z,20.63
2022-08-28T08:16:23.876Z,20.62
2022-08-28T08:22:38.156Z,20.75
2022-08-28T08:25:08.337Z,20.64
2022-08-28T08:27:41.026Z,20.61
2022-08-28T08:30:12.852Z,20.60
2022-08-28T08:32:41.127Z,20.71
2022-08-28T08:35:12.930Z,20.73
2022-08-28T08:37:40.928Z,20.76
2022-08-28T08:40:15.819Z,20.79
2022-08-28T08:42:49.536Z,20.81
2022-08-28T08:45:21.728Z,20.85
2022-08-28T08:47:53.177Z,20.74
2022-08-28T08:50:24.201Z,20.83
2022-08-28T08:53:13.402Z,20.93
2022-08-28T08:55:47.390Z,21.05
2022-08-28T08:58:25.050Z,20.91
2022-08-28T09:01:01.459Z,21.08
2022-08-28T09:03:48.768Z,21.12
2022-08-28T09:06:28.580Z,20.98
2022-08-28T09:09:04.398Z,20.93
2022-08-28T09:11:50.345Z,20.94
2022-08-28T09:14:37.832Z,21.11
2022-08-28T09:17:09.279Z,21.08
2022-08-28T09:19:40.742Z,21.14
2022-08-28T09:22:10.252Z,21.23
2022-08-28T09:24:42.473Z,21.18
2022-08-28T09:27:26.094Z,21.23
2022-08-28T09:29:58.960Z,21.28
2022-08-28T09:32:38.940Z,21.35
2022-08-28T09:35:17.086Z,21.49
2022-08-28T09:37:49.789Z,21.54
2022-08-28T09:40:23.894Z,21.56
2022-08-28T09:43:25.316Z,21.51
2022-08-28T09:46:03.484Z,21.48
2022-08-28T09:48:36.013Z,21.32
2022-08-28T09:51:06.211Z,21.51
2022-08-28T09:53:37.204Z,21.70
2022-08-28T09:56:22.304Z,21.72
2022-08-28T09:59:00.804Z,21.77
2022-08-28T10:01:58.961Z,21.77
2022-08-28T10:04:52.815Z,21.65
2022-08-28T10:07:33.881Z,21.57
2022-08-28T10:10:20.453Z,21.61
2022-08-28T10:13:04.034Z,21.65
2022-08-28T10:15:51.243Z,21.66
2022-08-28T10:18:38.610Z,21.72
2022-08-28T10:21:17.130Z,21.66
2022-08-28T10:24:13.685Z,21.74
2022-08-28T10:26:53.623Z,21.58
2022-08-28T10:29:35.461Z,21.53
2022-08-28T10:32:35.275Z,21.50
2022-08-28T10:35:12.978Z,21.40
2022-08-28T10:37:58.251Z,21.49
2022-08-28T10:40:31.842Z,21.61
2022-08-28T10:43:07.236Z,21.72
2022-08-28T10:45:41.607Z,21.54
2022-08-28T10:48:22.133Z,21.56
2022-08-28T10:50:56.823Z,21.59
2022-08-28T10:53:32.227Z,21.40
2022-08-28T10:56:07.597Z,21.46
2022-08-28T10:58:40.997Z,21.29
2022-08-28T11:01:16.740Z,21.22
2022-08-28T11:03:53.412Z,21.28
2022-08-28T11:06:31.705Z,21.30
2022-08-28T11:09:25.412Z,21.30
2022-08-28T11:12:01.730Z,21.32
2022-08-28T11:14:47.807Z,21.43
2022-08-28T11:17:41.895Z,21.60
2022-08-28T11:20:18.519Z,21.55
2022-08-28T11:22:53.603Z,21.62
2022-08-28T11:25:32.582Z,21.74
2022-08-28T11:28:23.491Z,21.92
2022-08-28T11:31:30.366Z,21.89
2022-08-28T11:34:01.536Z,21.86
2022-08-28T11:37:06.283Z,21.89
2022-08-28T11:39:36.065Z,21.77
2022-08-28T11:42:38.238Z,22.04
2022-08-28T11:45:07.308Z,22.09
2022-08-28T11:47:40.593Z,22.02
2022-08-28T11:50:24.254Z,22.16
2022-08-28T11:53:11.915Z,22.24
2022-08-28T11:56:31.375Z,22.25
2022-08-28T11:59:14.410Z,22.28
2022-08-28T12:01:43.356Z,22.31
2022-08-28T12:04:15.372Z,22.32
2022-08-28T12:06:55.432Z,22.32
2022-08-28T12:09:44.164Z,22.42
2022-08-28T12:12:52.626Z,22.43
2022-08-28T12:15:39.109Z,22.38
2022-08-28T12:18:15.544Z,22.39
2022-08-28T12:21:02.524Z,22.33
2022-08-28T12:23:42.419Z,22.24
2022-08-28T12:26:22.501Z,22.37
2022-08-28T12:28:59.233Z,22.32
2022-08-28T12:32:16.454Z,22.39
2022-08-28T12:34:50.208Z,22.28
2022-08-28T12:37:39.514Z,22.34
2022-08-28T12:40:24.036Z,22.30
2022-08-28T12:43:01.623Z,22.34
2022-08-28T12:45:39.970Z,22.42
2022-08-28T12:48:18.674Z,22.48
2022-08-28T12:50:50.242Z,22.41
2022-08-28T12:53:21.179Z,22.58
2022-08-28T12:55:51.889Z,22.58
2022-08-28T12:58:33.748Z,22.74
2022-08-28T13:01:10.024Z,22.62
2022-08-28T13:03:49.604Z,22.87
2022-08-28T13:06:28.848Z,22.91
2022-08-28T13:09:01.812Z,22.94
2022-08-28T13:11:38.926Z,22.69
2022-08-28T13:14:10.800Z,22.75
2022-08-28T13:16:47.245Z,22.65
2022-08-28T13:19:31.274Z,22.43
2022-08-28T13:22:03.456Z,22.45
2022-08-28T13:24:44.123Z,22.51
2022-08-28T13:27:26.676Z,22.50
2022-08-28T13:30:08.931Z,22.43
2022-08-28T13:32:42.631Z,22.34
2022-08-28T13:35:17.098Z,22.58
2022-08-28T13:37:49.156Z,22.34
2022-08-28T13:43:15.668Z,22.06
2022-08-28T13:45:49.971Z,21.90
2022-08-28T13:48:25.038Z,22.09
2022-08-28T13:50:59.289Z,22.05
2022-08-28T13:53:29.579Z,22.14
2022-08-28T13:56:00.764Z,22.16
2022-08-28T13:58:30.132Z,22.39
2022-08-28T14:01:02.491Z,22.44
2022-08-28T14:03:37.892Z,22.47
2022-08-28T14:06:12.368Z,22.49
2022-08-28T14:08:45.067Z,22.30
2022-08-28T14:11:16.368Z,22.23
2022-08-28T14:13:55.705Z,22.28
2022-08-28T14:16:28.042Z,22.28
2022-08-28T14:19:04.069Z,22.32
2022-08-28T14:21:35.529Z,22.23
2022-08-28T14:24:07.515Z,22.20
2022-08-28T14:26:39.422Z,22.17
2022-08-28T14:29:14.731Z,22.24
2022-08-28T14:31:48.040Z,22.14
2022-08-28T14:34:24.635Z,21.93
2022-08-28T14:36:56.307Z,21.99
2022-08-28T14:39:28.031Z,22.09
2022-08-28T14:41:57.981Z,21.98
2022-08-28T14:44:28.963Z,21.91
2022-08-28T14:46:58.863Z,21.94
2022-08-28T14:49:29.581Z,21.87
2022-08-28T14:52:00.582Z,21.94
2022-08-28T14:54:28.940Z,21.82
2022-08-28T14:56:58.381Z,21.62
2022-08-28T14:59:28.914Z,21.84
2022-08-28T15:01:59.567Z,21.87
2022-08-28T15:04:34.600Z,21.94
2022-08-28T15:07:06.577Z,21.87
2022-08-28T15:09:37.778Z,21.93
2022-08-28T15:12:06.995Z,21.93
2022-08-28T15:14:36.172Z,21.99
2022-08-28T15:17:05.223Z,22.01
2022-08-28T15:19:34.886Z,22.04
2022-08-28T15:22:04.314Z,22.19
2022-08-28T15:24:34.563Z,22.31
2022-08-28T15:27:03.447Z,22.32
2022-08-28T15:29:31.796Z,22.39
2022-08-28T15:32:01.602Z,22.26
2022-08-28T15:34:29.968Z,22.23
2022-08-28T15:37:00.514Z,22.25
2022-08-28T15:39:47.545Z,22.15
2022-08-28T15:42:15.915Z,22.19
2022-08-28T15:44:44.407Z,22.16
2022-08-28T15:47:13.893Z,22.24
2022-08-28T15:49:50.026Z,22.27
2022-08-28T15:52:25.900Z,22.30
2022-08-28T15:54:57.960Z,22.26
2022-08-28T15:57:30.960Z,22.19
2022-08-28T16:00:05.540Z,22.24
2022-08-28T16:02:35.904Z,22.10
2022-08-28T16:05:04.981Z,21.95
2022-08-28T16:07:36.573Z,22.03
2022-08-28T16:10:09.723Z,21.89
2022-08-28T16:12:41.988Z,22.00
2022-08-28T16:15:17.081Z,22.04
2022-08-28T16:17:52.454Z,22.16
2022-08-28T16:20:24.087Z,22.04
2022-08-28T16:22:58.722Z,21.89
2022-08-28T16:25:29.842Z,21.79
2022-08-28T16:28:03.036Z,21.81
2022-08-28T16:30:43.864Z,21.89
2022-08-28T16:33:17.292Z,21.90
2022-08-28T16:35:51.611Z,22.01
2022-08-28T16:38:28.731Z,21.79
2022-08-28T16:41:00.863Z,21.85
2022-08-28T16:43:32.683Z,21.81
2022-08-28T16:46:02.982Z,21.78
2022-08-28T16:48:31.486Z,21.67
2022-08-28T16:51:02.069Z,21.76
2022-08-28T16:53:33.749Z,21.72
2022-08-28T16:56:04.911Z,21.78
2022-08-28T16:58:35.509Z,21.70
2022-08-28T17:01:07.094Z,21.77
2022-08-28T17:03:39.365Z,21.77
2022-08-28T17:06:15.750Z,21.77
2022-08-28T17:08:55.860Z,21.80
2022-08-28T17:11:30.858Z,21.78
2022-08-28T17:14:01.045Z,21.72
2022-08-28T17:16:32.673Z,21.66
2022-08-28T17:19:06.579Z,21.68
2022-08-28T17:21:53.491Z,21.51
2022-08-28T17:24:32.442Z,21.49
2022-08-28T17:27:05.993Z,21.56
2022-08-28T17:29:40.436Z,21.45
2022-08-28T17:32:13.136Z,21.37
2022-08-28T17:34:42.797Z,21.46
2022-08-28T17:37:13.984Z,21.48
2022-08-28T17:39:47.939Z,21.49
2022-08-28T17:42:18.861Z,21.41
2022-08-28T17:44:49.238Z,21.41
2022-08-28T17:47:21.745Z,21.43
2022-08-28T17:49:56.565Z,21.43
2022-08-28T17:52:25.029Z,21.47
2022-08-28T17:54:54.898Z,21.53
2022-08-28T17:57:24.120Z,21.41
2022-08-28T17:59:52.370Z,21.58
2022-08-28T18:02:20.844Z,21.42
2022-08-28T18:04:49.726Z,21.49
2022-08-28T18:07:17.990Z,21.59
2022-08-28T18:09:46.170Z,21.63
2022-08-28T18:12:15.696Z,21.60
2022-08-28T18:14:46.726Z,21.64
2022-08-28T18:17:16.263Z,21.66
2022-08-28T18:19:44.563Z,21.66
2022-08-28T18:22:13.979Z,21.70
2022-08-28T18:24:44.009Z,21.73
2022-08-28T18:27:12.637Z,21.61
2022-08-28T18:29:42.112Z,21.68
2022-08-28T18:32:10.325Z,21.76
2022-08-28T18:34:38.341Z,21.72
2022-08-28T18:37:06.748Z,21.71
2022-08-28T18:39:35.882Z,21.71
2022-08-28T18:42:04.534Z,21.71
2022-08-28T18:44:32.886Z,21.73
2022-08-28T18:47:02.425Z,21.75
2022-08-28T18:49:33.799Z,21.71
2022-08-28T18:52:05.700Z,21.64
2022-08-28T18:54:36.577Z,21.65
2022-08-28T18:57:08.181Z,21.61
2022-08-28T18:59:43.791Z,21.56
2022-08-28T19:02:18.878Z,21.56
2022-08-28T19:04:48.680Z,21.71
2022-08-28T19:07:17.644Z,21.43
2022-08-28T19:09:48.666Z,21.44
2022-08-28T19:12:20.394Z,21.45
2022-08-28T19:14:50.365Z,21.48
2022-08-28T19:17:24.505Z,21.49
2022-08-28T19:19:54.334Z,21.41
2022-08-28T19:22:26.875Z,21.46
2022-08-28T19:25:01.144Z,21.50
2022-08-28T19:27:33.868Z,21.48
2022-08-28T19:30:04.964Z,21.50
2022-08-28T19:32:37.896Z,21.51
2022-08-28T19:35:10.613Z,21.51
2022-08-28T19:37:42.758Z,21.49
2022-08-28T19:40:13.758Z,21.38
2022-08-28T19:42:44.242Z,21.11
2022-08-28T19:45:18.808Z,21.01
2022-08-28T19:47:53.584Z,21.14
2022-08-28T19:50:23.442Z,21.19
2022-08-28T19:52:51.713Z,21.22
2022-08-28T19:55:22.279Z,21.20
2022-08-28T19:57:50.945Z,21.24
2022-08-28T20:00:21.589Z,21.23
2022-08-28T20:02:52.441Z,21.27
2022-08-28T20:05:21.596Z,21.28
2022-08-28T20:07:50.111Z,21.28
2022-08-28T20:10:20.045Z,21.31
2022-08-28T20:12:48.976Z,21.34
2022-08-28T20:15:18.772Z,21.35
2022-08-28T20:17:49.630Z,21.40
2022-08-28T20:20:21.970Z,21.40
2022-08-28T20:22:53.957Z,21.42
2022-08-28T20:25:22.556Z,21.43
2022-08-28T20:27:50.646Z,21.42
2022-08-28T20:30:19.280Z,21.39
2022-08-28T20:32:47.489Z,21.37
2022-08-28T20:35:16.268Z,21.42
2022-08-28T20:37:47.431Z,21.43
2022-08-28T20:40:18.209Z,21.46
2022-08-28T20:42:47.097Z,21.44
2022-08-28T20:45:16.943Z,21.43
2022-08-28T20:47:45.942Z,21.44
2022-08-28T20:50:16.934Z,21.45
2022-08-28T20:52:50.346Z,21.43
2022-08-28T20:55:21.344Z,21.43
2022-08-28T20:57:53.031Z,21.44
2022-08-28T21:00:24.612Z,21.43
2022-08-28T21:02:55.915Z,21.45
2022-08-28T21:05:25.945Z,21.45
2022-08-28T21:07:57.285Z,21.42
2022-08-28T21:10:25.514Z,21.42
2022-08-28T21:12:55.318Z,21.40
2022-08-28T21:15:24.163Z,21.40
2022-08-28T21:17:54.564Z,21.40
2022-08-28T21:20:25.426Z,21.41
2022-08-28T21:23:01.117Z,21.36
2022-08-28T21:25:31.979Z,21.32
2022-08-28T21:28:04.419Z,21.30
2022-08-28T21:30:36.119Z,21.31
2022-08-28T21:33:07.522Z,21.36
2022-08-28T21:35:38.506Z,21.33
2022-08-28T21:38:09.738Z,21.34
2022-08-28T21:40:42.486Z,21.24
2022-08-28T21:43:12.829Z,21.25
2022-08-28T21:45:42.326Z,21.25
2022-08-28T21:48:11.791Z,21.27
2022-08-28T21:50:44.125Z,21.29
2022-08-28T21:53:17.402Z,21.25
2022-08-28T21:55:51.193Z,21.19
2022-08-28T21:58:23.183Z,21.17
2022-08-28T22:00:54.264Z,21.06
2022-08-28T22:03:23.419Z,21.08
2022-08-28T22:05:55.273Z,21.08
2022-08-28T22:08:29.732Z,21.11
2022-08-28T22:11:00.062Z,21.13
2022-08-28T22:13:31.435Z,21.16
2022-08-28T22:16:03.470Z,21.16
2022-08-28T22:18:36.593Z,21.18
2022-08-28T22:21:25.350Z,21.16
2022-08-28T22:23:59.007Z,21.21
2022-08-28T22:26:28.412Z,21.20
2022-08-28T22:28:59.579Z,21.24
2022-08-28T22:31:30.241Z,21.25
2022-08-28T22:34:00.770Z,21.26
2022-08-28T22:36:31.134Z,21.27
2022-08-28T22:39:01.384Z,21.17
2022-08-28T22:41:31.831Z,21.14
2022-08-28T22:44:03.199Z,21.16
2022-08-28T22:46:33.713Z,21.12
2022-08-28T22:49:07.650Z,21.09
2022-08-28T22:51:36.894Z,21.08
2022-08-28T22:54:06.975Z,21.08
2022-08-28T22:56:36.454Z,21.10
2022-08-28T22:59:04.770Z,21.11
2022-08-28T23:01:32.738Z,21.04
2022-08-28T23:06:29.739Z,21.00
2022-08-28T23:08:57.783Z,21.02
2022-08-28T23:11:27.325Z,21.06
2022-08-28T23:13:55.356Z,21.08
2022-08-28T23:16:24.682Z,21.09
2022-08-28T23:19:08.583Z,21.14
2022-08-28T23:21:39.236Z,21.08
2022-08-28T23:24:13.325Z,21.10
2022-08-28T23:26:43.249Z,21.05
2022-08-28T23:29:12.846Z,21.13
2022-08-28T23:31:41.617Z,21.21
2022-08-28T23:34:10.039Z,21.23
2022-08-28T23:36:44.031Z,21.25
2022-08-28T23:39:12.007Z,21.28
2022-08-28T23:41:40.203Z,21.30
2022-08-28T23:44:10.756Z,21.32
2022-08-28T23:46:42.335Z,21.34
2022-08-28T23:49:13.733Z,21.32
2022-08-28T23:51:47.677Z,21.34
2022-08-28T23:54:20.611Z,21.33
2022-08-28T23:56:52.541Z,21.35
2022-08-28T23:59:27.507Z,21.36
